Time;durP1;ratioP1;P1;durP2;ratioP2;P2;SDS_P1;SDS_P2;PMS_P1;PMS_P2;Temp;Humidity;BMP_temperature;BMP_pressure;BME280_temperature;BME280_humidity;BME280_pressure;Samples;Min_cycle;Max_cycle;Signal;HPM_P1;HPM_P2
2023/07/28 00:01:56;;;;;;;6.20;4.10;;;24.50;52.00;;;;;;4973233;28;20558;-71
2023/07/28 00:04:22;;;;;;;7.30;3.87;;;24.50;52.00;;;;;;4974573;28;20170;-71
2023/07/28 00:06:47;;;;;;;6.67;3.70;;;24.50;52.00;;;;;;4974498;28;20277;-72
2023/07/28 00:09:13;;;;;;;5.60;3.57;;;24.50;52.00;;;;;;4974195;28;20184;-71
2023/07/28 00:11:38;;;;;;;5.50;3.40;;;24.50;52.00;;;;;;4973269;28;20189;-70
2023/07/28 00:14:04;;;;;;;6.23;4.17;;;24.50;52.00;;;;;;4974338;28;20248;-70
2023/07/28 00:16:30;;;;;;;6.20;3.77;;;24.50;52.00;;;;;;4974394;28;20607;-71
2023/07/28 00:18:55;;;;;;;5.67;3.53;;;24.50;52.00;;;;;;4974351;28;20184;-72
2023/07/28 00:21:21;;;;;;;5.27;3.50;;;24.50;52.00;;;;;;4974116;28;20213;-71
2023/07/28 00:23:47;;;;;;;6.80;3.17;;;24.50;52.00;;;;;;4973982;28;20196;-71
2023/07/28 00:26:13;;;;;;;6.00;3.33;;;24.50;52.00;;;;;;4974113;28;20413;-70
2023/07/28 00:28:38;;;;;;;7.03;3.40;;;24.50;52.00;;;;;;4974072;28;20910;-71
2023/07/28 00:31:04;;;;;;;7.60;3.67;;;24.50;52.00;;;;;;4972664;28;20213;-71
2023/07/28 00:33:29;;;;;;;6.03;3.43;;;24.50;51.90;;;;;;4974049;28;20213;-70
2023/07/28 00:35:55;;;;;;;6.87;3.80;;;24.50;52.00;;;;;;4974407;28;20228;-71
2023/07/28 00:38:21;;;;;;;8.83;3.30;;;24.50;52.00;;;;;;4974026;28;20240;-71
2023/07/28 00:40:46;;;;;;;4.30;2.93;;;24.50;52.00;;;;;;4973197;28;20566;-71
2023/07/28 00:43:12;;;;;;;5.90;3.93;;;24.50;52.00;;;;;;4973878;28;20260;-70
2023/07/28 00:45:38;;;;;;;6.20;3.00;;;24.50;52.00;;;;;;4974008;28;20213;-71
2023/07/28 00:48:11;;;;;;;5.97;3.43;;;24.50;52.00;;;;;;4956438;28;20178;-71
2023/07/28 00:50:36;;;;;;;8.57;4.13;;;24.50;52.00;;;;;;4973841;28;20429;-71
2023/07/28 00:53:02;;;;;;;5.40;3.37;;;24.50;52.00;;;;;;4973708;28;20425;-70
2023/07/28 00:55:28;;;;;;;6.80;3.57;;;24.50;51.90;;;;;;4973640;28;20213;-71
2023/07/28 00:57:53;;;;;;;6.47;3.60;;;24.50;51.90;;;;;;4973715;28;20233;-71
2023/07/28 01:00:19;;;;;;;6.47;3.20;;;24.50;52.00;;;;;;4973687;28;20221;-71
2023/07/28 01:02:45;;;;;;;6.50;3.37;;;24.50;51.90;;;;;;4973608;28;20188;-70
2023/07/28 01:05:10;;;;;;;7.40;3.40;;;24.50;52.00;;;;;;4973665;28;20209;-71
2023/07/28 01:07:45;;;;;;;5.23;3.07;;;24.50;52.00;;;;;;4973617;28;20259;-71
2023/07/28 01:10:17;;;;;;;5.37;3.53;;;24.50;52.00;;;;;;4973589;28;20193;-72
2023/07/28 01:12:42;;;;;;;5.23;3.13;;;24.50;51.90;;;;;;4973549;28;20404;-71
2023/07/28 01:15:08;;;;;;;5.80;3.53;;;24.50;52.00;;;;;;4973473;28;20783;-70
2023/07/28 01:17:34;;;;;;;4.43;3.37;;;24.50;52.00;;;;;;4972937;28;20205;-71
2023/07/28 01:20:00;;;;;;;7.40;3.30;;;24.50;52.00;;;;;;4956011;28;20445;-71
2023/07/28 01:22:56;;;;;;;4.73;2.77;;;24.50;52.00;;;;;;4973563;28;20210;-71
2023/07/28 01:25:43;;;;;;;7.93;3.47;;;24.50;51.90;;;;;;4973497;28;20629;-71
2023/07/28 01:28:10;;;;;;;5.60;3.50;;;24.50;51.90;;;;;;4973461;28;20440;-71
2023/07/28 01:30:36;;;;;;;6.10;3.57;;;24.50;52.00;;;;;;4971863;28;20463;-71
2023/07/28 01:33:07;;;;;;;4.10;2.67;;;24.50;52.00;;;;;;4973727;28;20405;-71
2023/07/28 01:35:33;;;;;;;6.63;3.63;;;24.50;51.90;;;;;;4973435;28;20166;-71
2023/07/28 01:37:58;;;;;;;5.20;2.70;;;24.50;51.90;;;;;;4973371;28;20413;-72
2023/07/28 01:40:24;;;;;;;4.47;2.53;;;24.50;51.90;;;;;;4973261;28;20197;-71
2023/07/28 01:42:49;;;;;;;4.47;2.93;;;24.50;51.90;;;;;;4973332;28;20182;-71
2023/07/28 01:45:15;;;;;;;7.73;3.33;;;24.50;51.90;;;;;;4956061;28;20309;-71
2023/07/28 01:47:41;;;;;;;5.43;3.30;;;24.50;51.90;;;;;;4973138;28;20682;-72
2023/07/28 01:50:06;;;;;;;4.93;2.53;;;24.50;51.90;;;;;;4973288;28;20204;-71
2023/07/28 01:52:32;;;;;;;5.07;3.30;;;24.50;51.90;;;;;;4973129;28;20186;-71
2023/07/28 01:54:57;;;;;;;4.30;2.67;;;24.50;51.90;;;;;;4973237;28;20189;-71
2023/07/28 01:57:27;;;;;;;4.20;2.63;;;24.50;51.90;;;;;;4973327;28;20201;-71
2023/07/28 01:59:53;;;;;;;4.10;2.70;;;24.50;51.80;;;;;;4973108;28;20190;-71
2023/07/28 02:02:18;;;;;;;5.03;3.43;;;24.50;51.90;;;;;;4973131;28;20522;-71
2023/07/28 02:04:44;;;;;;;4.77;3.00;;;24.50;51.80;;;;;;4955771;28;20422;-70
2023/07/28 02:07:09;;;;;;;5.20;3.10;;;24.50;52.40;;;;;;4973167;28;20182;-71
2023/07/28 02:09:35;;;;;;;4.87;2.80;;;24.50;51.80;;;;;;4973159;28;20197;-72
2023/07/28 02:12:00;;;;;;;5.67;2.60;;;24.50;51.80;;;;;;4973148;28;20188;-71
2023/07/28 02:14:26;;;;;;;4.10;2.70;;;24.50;51.90;;;;;;4973008;28;20248;-71
2023/07/28 02:16:51;;;;;;;4.73;3.30;;;24.50;51.80;;;;;;4972986;28;20590;-71
2023/07/28 02:19:17;;;;;;;6.00;3.47;;;24.50;51.80;;;;;;4973216;28;20202;-71
2023/07/28 02:21:43;;;;;;;5.00;3.47;;;24.50;51.80;;;;;;4972880;28;20202;-71
2023/07/28 02:24:08;;;;;;;6.50;2.80;;;24.50;51.80;;;;;;4973029;28;20174;-71
2023/07/28 02:26:34;;;;;;;4.47;3.03;;;24.50;51.80;;;;;;4973084;28;20240;-70
2023/07/28 02:28:59;;;;;;;5.67;2.97;;;24.50;51.80;;;;;;4973732;28;20266;-71
2023/07/28 02:31:25;;;;;;;4.83;3.07;;;24.50;51.80;;;;;;4976270;28;20189;-71
2023/07/28 02:33:50;;;;;;;5.27;2.80;;;24.50;51.80;;;;;;4958807;28;20547;-71
2023/07/28 02:36:16;;;;;;;5.27;3.50;;;24.50;51.80;;;;;;4975050;28;20178;-71
2023/07/28 02:38:42;;;;;;;4.00;2.60;;;24.50;51.80;;;;;;4976219;28;20185;-71
2023/07/28 02:41:07;;;;;;;5.70;3.10;;;24.50;51.80;;;;;;4975774;28;20210;-71
2023/07/28 02:43:33;;;;;;;4.37;2.63;;;24.50;51.80;;;;;;4975913;28;20174;-72
2023/07/28 02:46:01;;;;;;;3.30;2.80;;;24.50;51.80;;;;;;4976139;28;20546;-71
2023/07/28 02:48:27;;;;;;;6.70;3.10;;;24.50;51.80;;;;;;4976068;28;20180;-71
2023/07/28 02:50:53;;;;;;;5.17;2.43;;;24.50;51.80;;;;;;4975955;28;20441;-71
2023/07/28 02:53:19;;;;;;;3.80;2.83;;;24.50;51.80;;;;;;4974685;28;20449;-71
2023/07/28 02:55:46;;;;;;;3.70;2.67;;;24.50;51.80;;;;;;4975814;28;20228;-72
2023/07/28 02:58:13;;;;;;;4.27;2.60;;;24.50;51.90;;;;;;4976000;28;20952;-71
2023/07/28 03:00:40;;;;;;;3.70;2.17;;;24.50;51.90;;;;;;4975647;28;20460;-71
2023/07/28 03:03:06;;;;;;;3.50;2.37;;;24.50;51.90;;;;;;4975795;28;20405;-71
2023/07/28 03:05:32;;;;;;;4.97;3.03;;;24.50;51.90;;;;;;4958733;28;20504;-71
2023/07/28 03:07:58;;;;;;;4.10;2.47;;;24.50;51.90;;;;;;4975937;28;20970;-71
2023/07/28 03:10:24;;;;;;;6.30;2.87;;;24.50;51.90;;;;;;4975575;28;20272;-71
2023/07/28 03:12:49;;;;;;;3.90;3.00;;;24.50;51.90;;;;;;4975566;28;20840;-70
2023/07/28 03:15:15;;;;;;;3.70;2.30;;;24.50;51.90;;;;;;4975684;28;20169;-72
2023/07/28 03:17:40;;;;;;;3.00;2.27;;;24.50;51.90;;;;;;4975283;28;20666;-71
2023/07/28 03:20:06;;;;;;;4.00;2.97;;;24.50;51.90;;;;;;4975410;28;20220;-71
2023/07/28 03:22:32;;;;;;;4.30;2.50;;;24.50;51.90;;;;;;4975741;28;20198;-71
2023/07/28 03:24:58;;;;;;;4.40;3.53;;;24.50;51.90;;;;;;4975404;28;20851;-71
2023/07/28 03:27:24;;;;;;;5.90;2.87;;;24.50;51.90;;;;;;4975182;28;20170;-72
2023/07/28 03:29:50;;;;;;;3.50;2.47;;;24.50;51.90;;;;;;4975007;28;20260;-72
2023/07/28 03:32:16;;;;;;;3.27;2.97;;;24.50;51.90;;;;;;4974901;28;20490;-70
2023/07/28 03:34:41;;;;;;;3.33;2.60;;;24.50;51.90;;;;;;4957681;28;20457;-72
2023/07/28 03:37:07;;;;;;;3.23;2.27;;;24.50;51.90;;;;;;4975143;28;20260;-72
2023/07/28 03:39:32;;;;;;;3.67;2.60;;;24.50;51.90;;;;;;4974455;28;20674;-72
2023/07/28 03:41:58;;;;;;;3.17;2.17;;;24.50;52.00;;;;;;4974847;28;20686;-71
2023/07/28 03:44:25;;;;;;;3.70;2.40;;;24.50;52.00;;;;;;4974907;28;20177;-71
2023/07/28 03:46:51;;;;;;;4.43;2.90;;;24.50;52.00;;;;;;4974902;28;20541;-70
2023/07/28 03:49:16;;;;;;;3.70;2.60;;;24.50;52.00;;;;;;4973522;28;20436;-71
2023/07/28 03:51:42;;;;;;;3.23;2.27;;;24.50;52.00;;;;;;4957392;28;20205;-71
2023/07/28 03:54:08;;;;;;;3.33;1.90;;;24.50;52.00;;;;;;4974839;28;20174;-70
2023/07/28 03:56:33;;;;;;;2.87;2.50;;;24.50;52.00;;;;;;4974646;28;20174;-70
2023/07/28 03:59:00;;;;;;;4.90;2.10;;;24.50;52.00;;;;;;4974481;28;20590;-72
2023/07/28 04:01:26;;;;;;;3.10;2.03;;;24.50;52.00;;;;;;4974498;28;20305;-71
2023/07/28 04:03:51;;;;;;;3.20;2.30;;;24.50;52.00;;;;;;4974557;28;20487;-71
2023/07/28 04:06:17;;;;;;;4.20;2.33;;;24.50;52.00;;;;;;4974475;28;20170;-71
2023/07/28 04:08:43;;;;;;;4.33;2.00;;;24.50;52.00;;;;;;4972880;28;20601;-70
2023/07/28 04:11:09;;;;;;;2.40;2.07;;;24.50;51.90;;;;;;4974336;28;20229;-71
2023/07/28 04:13:35;;;;;;;2.80;2.07;;;24.50;52.00;;;;;;4974403;28;20233;-70
2023/07/28 04:16:01;;;;;;;2.17;1.97;;;24.50;52.00;;;;;;4974253;28;20417;-71
2023/07/28 04:18:26;;;;;;;4.07;2.10;;;24.50;51.90;;;;;;4974613;28;20253;-71
2023/07/28 04:20:52;;;;;;;3.07;2.33;;;24.40;51.90;;;;;;4974266;28;20503;-72
2023/07/28 04:23:17;;;;;;;3.20;2.20;;;24.50;51.90;;;;;;4974488;28;20650;-71
2023/07/28 04:25:43;;;;;;;2.40;2.20;;;24.40;51.90;;;;;;4971831;28;20174;-71
2023/07/28 04:28:09;;;;;;;2.67;2.23;;;24.40;51.90;;;;;;4974103;28;20635;-71
2023/07/28 04:30:34;;;;;;;3.27;2.40;;;24.40;51.90;;;;;;4973966;28;20204;-71
2023/07/28 04:33:00;;;;;;;2.77;2.40;;;24.40;51.90;;;;;;4974074;28;20704;-70
2023/07/28 04:35:26;;;;;;;2.80;2.00;;;24.50;52.00;;;;;;4956405;28;20174;-70
2023/07/28 04:37:51;;;;;;;2.70;1.93;;;24.50;52.00;;;;;;4974132;28;20174;-70
2023/07/28 04:40:17;;;;;;;4.33;2.00;;;24.40;51.90;;;;;;4974079;28;20252;-71
2023/07/28 04:42:42;;;;;;;2.47;2.00;;;24.50;52.00;;;;;;4973021;28;20184;-71
2023/07/28 04:45:08;;;;;;;2.40;1.97;;;24.50;52.00;;;;;;4973949;28;20666;-71
2023/07/28 04:47:34;;;;;;;4.00;2.70;;;24.40;52.20;;;;;;4973993;28;20640;-71
2023/07/28 04:50:00;;;;;;;2.37;2.07;;;24.40;51.90;;;;;;4973689;28;20515;-70
2023/07/28 04:52:25;;;;;;;2.67;1.77;;;24.40;51.90;;;;;;4971839;28;20190;-71
2023/07/28 04:54:51;;;;;;;3.73;2.30;;;24.40;52.00;;;;;;4972848;28;20217;-71
2023/07/28 04:57:19;;;;;;;3.23;1.83;;;24.40;51.90;;;;;;4973693;28;20184;-71
2023/07/28 04:59:44;;;;;;;3.20;2.33;;;24.50;52.00;;;;;;4973469;28;20197;-71
2023/07/28 05:02:10;;;;;;;3.17;1.80;;;24.50;52.00;;;;;;4973435;28;20453;-70
2023/07/28 05:04:36;;;;;;;3.53;2.20;;;24.40;52.00;;;;;;4973316;28;20166;-69
2023/07/28 05:07:02;;;;;;;1.77;1.40;;;24.50;52.00;;;;;;4973295;28;20538;-70
2023/07/28 05:09:28;;;;;;;2.50;2.03;;;24.40;51.90;;;;;;4956013;28;20441;-70
2023/07/28 05:11:54;;;;;;;3.20;2.20;;;24.40;51.90;;;;;;4972906;28;20898;-70
2023/07/28 05:14:20;;;;;;;2.13;1.70;;;24.40;52.00;;;;;;4973117;28;20460;-71
2023/07/28 05:16:46;;;;;;;2.00;1.80;;;24.40;52.00;;;;;;4955945;28;20583;-70
2023/07/28 05:19:12;;;;;;;3.00;1.97;;;24.40;51.90;;;;;;4971919;28;20706;-69
2023/07/28 05:21:38;;;;;;;2.60;1.97;;;24.40;51.90;;;;;;4973058;28;20456;-70
2023/07/28 05:24:04;;;;;;;2.33;1.90;;;24.40;51.90;;;;;;4973218;28;20413;-70
2023/07/28 05:26:29;;;;;;;2.53;1.63;;;24.40;51.90;;;;;;4973360;28;20184;-70
2023/07/28 05:28:55;;;;;;;2.70;2.20;;;24.50;52.00;;;;;;4973080;28;20193;-69
2023/07/28 05:31:20;;;;;;;2.07;1.67;;;24.50;52.00;;;;;;4972939;28;20209;-71
2023/07/28 05:33:46;;;;;;;3.37;1.93;;;24.40;51.90;;;;;;4973117;28;20261;-70
2023/07/28 05:36:12;;;;;;;2.17;1.50;;;24.40;52.00;;;;;;4973118;28;20539;-70
2023/07/28 05:38:37;;;;;;;1.87;1.60;;;24.40;52.00;;;;;;4973142;28;20178;-70
2023/07/28 05:41:04;;;;;;;2.80;1.70;;;24.40;52.00;;;;;;4973038;28;20259;-70
2023/07/28 05:43:33;;;;;;;2.20;1.70;;;24.40;51.90;;;;;;4972947;28;20669;-69
2023/07/28 05:46:00;;;;;;;2.97;1.80;;;24.40;51.90;;;;;;4972970;28;20401;-70
2023/07/28 05:48:26;;;;;;;2.77;1.60;;;24.40;52.00;;;;;;4955797;28;20521;-71
2023/07/28 05:50:53;;;;;;;3.27;1.70;;;24.40;51.90;;;;;;4972821;28;20441;-69
2023/07/28 05:53:21;;;;;;;2.23;1.40;;;24.40;51.90;;;;;;4955585;28;20492;-69
2023/07/28 05:55:48;;;;;;;2.17;1.73;;;24.40;52.00;;;;;;4973276;28;20936;-70
2023/07/28 05:58:15;;;;;;;1.60;1.50;;;24.40;52.00;;;;;;4973056;28;20416;-69
2023/07/28 06:00:41;;;;;;;2.17;1.70;;;24.40;51.90;;;;;;4971509;28;20464;-69
2023/07/28 06:03:11;;;;;;;2.60;1.67;;;24.40;52.00;;;;;;4973827;28;20408;-67
2023/07/28 06:05:40;;;;;;;2.10;1.60;;;24.40;52.00;;;;;;4976893;28;20917;-70
2023/07/28 06:08:06;;;;;;;2.43;1.97;;;24.40;52.00;;;;;;4976543;28;20409;-71
2023/07/28 06:10:32;;;;;;;2.03;1.50;;;24.40;52.00;;;;;;4975239;28;20480;-70
2023/07/28 06:12:58;;;;;;;1.90;1.60;;;24.40;51.90;;;;;;4976367;28;20516;-69
2023/07/28 06:15:23;;;;;;;2.63;1.70;;;24.40;52.00;;;;;;4976494;28;20492;-70
2023/07/28 06:17:49;;;;;;;2.30;1.60;;;24.40;51.90;;;;;;4976293;28;20174;-70
2023/07/28 06:20:14;;;;;;;2.47;2.07;;;24.40;51.90;;;;;;4976365;28;20209;-69
2023/07/28 06:22:41;;;;;;;4.57;1.67;;;24.40;52.00;;;;;;4976156;28;20213;-70
2023/07/28 06:25:07;;;;;;;2.27;1.80;;;24.40;51.90;;;;;;4976212;28;20201;-70
2023/07/28 06:27:32;;;;;;;2.40;1.50;;;24.40;51.90;;;;;;4976009;28;20785;-68
2023/07/28 06:29:58;;;;;;;2.10;1.43;;;24.40;51.90;;;;;;4975955;28;20453;-70
2023/07/28 06:32:24;;;;;;;2.50;1.60;;;24.50;52.00;;;;;;4974904;28;20228;-70
2023/07/28 06:34:51;;;;;;;1.97;1.40;;;24.40;51.90;;;;;;4975939;28;20690;-69
2023/07/28 06:37:17;;;;;;;1.93;1.73;;;24.40;51.90;;;;;;4976101;28;20657;-70
2023/07/28 06:39:42;;;;;;;2.47;1.67;;;24.40;51.80;;;;;;4975777;28;20444;-70
2023/07/28 06:42:08;;;;;;;1.50;1.30;;;24.40;51.90;;;;;;4975739;28;20244;-71
2023/07/28 06:44:34;;;;;;;1.90;1.60;;;24.40;51.90;;;;;;4975027;28;20651;-71
2023/07/28 06:47:00;;;;;;;2.07;1.50;;;24.40;51.80;;;;;;4975547;28;20414;-71
2023/07/28 06:49:25;;;;;;;1.90;1.43;;;24.40;51.90;;;;;;4975654;28;20240;-69
2023/07/28 06:51:51;;;;;;;2.00;1.67;;;24.40;51.80;;;;;;4975596;28;20670;-70
2023/07/28 06:54:16;;;;;;;2.00;1.40;;;24.40;51.80;;;;;;4975604;28;20221;-70
2023/07/28 06:56:42;;;;;;;1.60;1.50;;;24.40;51.90;;;;;;4975512;28;20209;-70
2023/07/28 06:59:08;;;;;;;1.60;1.27;;;24.40;51.80;;;;;;4975438;28;20176;-70
2023/07/28 07:01:34;;;;;;;1.57;1.20;;;24.40;51.90;;;;;;4975560;28;20228;-70
2023/07/28 07:04:00;;;;;;;2.37;1.90;;;24.40;51.90;;;;;;4975446;28;20294;-71
2023/07/28 07:06:26;;;;;;;2.03;1.43;;;24.40;51.90;;;;;;4975332;28;20433;-70
2023/07/28 07:08:52;;;;;;;1.80;1.30;;;24.40;51.90;;;;;;4975427;28;20416;-70
2023/07/28 07:11:18;;;;;;;2.40;1.50;;;24.40;52.40;;;;;;4975297;28;20248;-70
2023/07/28 07:13:43;;;;;;;2.40;1.43;;;24.40;51.90;;;;;;4975232;28;20416;-69
2023/07/28 07:16:16;;;;;;;1.77;1.33;;;24.40;51.90;;;;;;4974811;28;20178;-70
2023/07/28 07:18:43;;;;;;;1.93;1.60;;;24.40;51.90;;;;;;4975380;28;20174;-70
2023/07/28 07:21:09;;;;;;;1.50;1.30;;;24.40;51.90;;;;;;4975352;28;20460;-70
2023/07/28 07:23:35;;;;;;;2.00;1.40;;;24.40;51.90;;;;;;4975468;28;20818;-71
2023/07/28 07:26:01;;;;;;;2.30;1.57;;;24.40;51.90;;;;;;4975134;28;20440;-70
2023/07/28 07:28:28;;;;;;;3.53;2.13;;;24.40;51.90;;;;;;4973741;28;20923;-70
2023/07/28 07:30:56;;;;;;;1.90;1.70;;;24.40;51.90;;;;;;4975007;28;20209;-70
2023/07/28 07:33:24;;;;;;;1.47;1.30;;;24.40;51.90;;;;;;4975009;28;20472;-69
2023/07/28 07:35:50;;;;;;;1.73;1.17;;;24.40;51.90;;;;;;4974991;28;20440;-71
2023/07/28 07:38:15;;;;;;;2.30;1.30;;;24.40;51.90;;;;;;4974978;28;20940;-70
2023/07/28 07:40:41;;;;;;;2.23;1.20;;;24.40;51.90;;;;;;4974654;28;20204;-71
2023/07/28 07:43:06;;;;;;;1.73;1.30;;;24.40;51.90;;;;;;4974749;28;20184;-69
2023/07/28 07:45:33;;;;;;;1.87;1.20;;;24.40;51.90;;;;;;4974476;28;20224;-70
2023/07/28 07:47:59;;;;;;;1.90;1.40;;;24.40;51.90;;;;;;4974684;28;20170;-70
2023/07/28 07:50:25;;;;;;;1.47;1.13;;;24.40;51.90;;;;;;4974580;28;21293;-71
2023/07/28 07:52:50;;;;;;;2.37;1.50;;;24.40;51.90;;;;;;4973344;28;20425;-72
2023/07/28 07:55:17;;;;;;;2.10;1.10;;;24.40;51.90;;;;;;4974581;28;20170;-69
2023/07/28 07:57:43;;;;;;;1.90;1.40;;;24.40;51.90;;;;;;4974767;28;20189;-70
2023/07/28 08:00:10;;;;;;;1.43;1.00;;;24.40;51.80;;;;;;4974306;28;20429;-69
2023/07/28 08:02:36;;;;;;;1.33;1.23;;;24.40;51.80;;;;;;4973938;28;20205;-69
2023/07/28 08:05:03;;;;;;;2.17;1.40;;;24.40;51.80;;;;;;4974319;28;20755;-69
2023/07/28 08:07:28;;;;;;;2.40;1.40;;;24.40;51.80;;;;;;4974653;28;20285;-70
2023/07/28 08:09:54;;;;;;;1.20;1.00;;;24.40;51.80;;;;;;4956842;28;20975;-70
2023/07/28 08:12:20;;;;;;;2.10;1.10;;;24.40;51.80;;;;;;4956957;28;20177;-70
2023/07/28 08:14:46;;;;;;;1.83;1.13;;;24.40;51.80;;;;;;4956859;28;20237;-70
2023/07/28 08:17:12;;;;;;;1.40;1.10;;;24.40;51.70;;;;;;4974152;28;20417;-70
2023/07/28 08:19:37;;;;;;;1.70;1.20;;;24.40;51.70;;;;;;4974115;28;20439;-70
2023/07/28 08:22:03;;;;;;;1.90;1.17;;;24.40;51.70;;;;;;4974040;28;20977;-69
2023/07/28 08:24:29;;;;;;;2.10;1.23;;;24.40;51.70;;;;;;4974071;28;20201;-70
2023/07/28 08:26:55;;;;;;;1.73;1.50;;;24.40;51.70;;;;;;4973944;28;20184;-70
2023/07/28 08:29:21;;;;;;;1.70;1.30;;;24.40;51.70;;;;;;4974090;28;20424;-70
2023/07/28 08:31:48;;;;;;;1.90;1.37;;;24.40;51.70;;;;;;4973908;28;20227;-70
2023/07/28 08:34:13;;;;;;;1.23;1.10;;;24.40;51.70;;;;;;4973998;28;20241;-69
2023/07/28 08:36:40;;;;;;;2.27;1.40;;;24.40;51.90;;;;;;4973868;28;20830;-70
2023/07/28 08:39:06;;;;;;;1.20;1.10;;;24.40;51.70;;;;;;4973977;28;20690;-71
2023/07/28 08:41:32;;;;;;;1.67;1.30;;;24.40;51.70;;;;;;4973672;28;20869;-70
2023/07/28 08:43:58;;;;;;;1.70;1.30;;;24.40;52.20;;;;;;4973825;28;20408;-69
2023/07/28 08:46:23;;;;;;;1.77;1.20;;;24.40;51.70;;;;;;4973899;28;20185;-71
2023/07/28 08:48:49;;;;;;;1.80;1.30;;;24.40;51.70;;;;;;4973757;28;20405;-69
2023/07/28 08:51:15;;;;;;;1.70;1.30;;;24.40;51.70;;;;;;4973793;28;20228;-70
2023/07/28 08:53:40;;;;;;;1.37;1.00;;;24.40;51.70;;;;;;4973668;28;20169;-70
2023/07/28 08:56:08;;;;;;;1.33;1.23;;;24.40;51.70;;;;;;4973567;28;20178;-69
2023/07/28 08:58:33;;;;;;;1.40;1.20;;;24.40;51.60;;;;;;4973560;28;20173;-70
2023/07/28 09:01:02;;;;;;;1.77;1.10;;;24.40;51.60;;;;;;4973426;28;20464;-71
2023/07/28 09:03:31;;;;;;;1.20;0.97;;;24.40;51.60;;;;;;4973678;28;20181;-69
2023/07/28 09:06:02;;;;;;;1.40;1.10;;;24.50;51.70;;;;;;4973475;28;20774;-70
2023/07/28 09:08:30;;;;;;;1.10;1.00;;;24.40;51.60;;;;;;4973445;28;20436;-70
2023/07/28 09:10:56;;;;;;;1.60;1.03;;;24.40;51.70;;;;;;4973627;28;20433;-69
2023/07/28 09:13:22;;;;;;;1.83;1.00;;;24.50;51.70;;;;;;4973419;28;20863;-69
2023/07/28 09:15:47;;;;;;;1.57;1.20;;;24.40;51.60;;;;;;4972062;28;20188;-71
2023/07/28 09:18:15;;;;;;;1.20;1.00;;;24.40;51.60;;;;;;4973077;28;20248;-70
2023/07/28 09:20:41;;;;;;;1.50;1.23;;;24.50;51.70;;;;;;4973093;28;20204;-70
2023/07/28 09:23:08;;;;;;;1.60;1.10;;;24.40;51.60;;;;;;4973284;28;20409;-70
2023/07/28 09:25:35;;;;;;;1.47;1.13;;;24.40;51.60;;;;;;4973339;28;20936;-70
2023/07/28 09:28:01;;;;;;;1.30;1.10;;;24.40;51.60;;;;;;4973199;28;20413;-70
2023/07/28 09:30:42;;;;;;;1.50;1.10;;;24.40;51.60;;;;;;4973161;28;20469;-69
2023/07/28 09:33:07;;;;;;;1.60;1.10;;;24.50;51.70;;;;;;4973191;28;20435;-70
2023/07/28 09:35:33;;;;;;;1.30;1.00;;;24.40;51.60;;;;;;4973107;28;20409;-71
2023/07/28 09:37:59;;;;;;;1.43;1.10;;;24.40;51.60;;;;;;4973300;28;20174;-70
2023/07/28 09:40:27;;;;;;;1.97;1.30;;;24.40;51.60;;;;;;4959477;28;20451;-69
2023/07/28 09:42:54;;;;;;;2.20;1.33;;;24.40;51.60;;;;;;4959507;28;20276;-69
2023/07/28 09:45:21;;;;;;;1.70;1.30;;;24.40;51.70;;;;;;4977031;28;20839;-70
2023/07/28 09:47:52;;;;;;;1.50;1.20;;;24.50;51.80;;;;;;4977220;28;20419;-71
2023/07/28 09:50:22;;;;;;;1.40;1.17;;;24.40;51.60;;;;;;4976883;28;20476;-70
2023/07/28 09:52:52;;;;;;;1.90;1.20;;;24.50;51.70;;;;;;4977058;28;20774;-70
2023/07/28 09:55:19;;;;;;;1.90;1.17;;;24.40;51.60;;;;;;4976806;28;20783;-70
2023/07/28 09:57:51;;;;;;;1.17;0.97;;;24.40;51.70;;;;;;4976887;28;20416;-70
2023/07/28 10:00:18;;;;;;;1.70;1.13;;;24.50;51.70;;;;;;4977050;28;20443;-70
2023/07/28 10:02:45;;;;;;;1.23;1.10;;;24.40;51.60;;;;;;4976507;28;20464;-70
2023/07/28 10:05:11;;;;;;;1.50;1.10;;;24.40;51.60;;;;;;4976991;28;20416;-69
2023/07/28 10:07:40;;;;;;;1.53;1.10;;;24.40;51.60;;;;;;4959253;28;20420;-70
2023/07/28 10:10:07;;;;;;;1.60;1.10;;;24.40;51.70;;;;;;4976416;28;20436;-68
2023/07/28 10:12:41;;;;;;;1.47;1.00;;;24.40;51.70;;;;;;4976456;28;20424;-71
2023/07/28 10:15:11;;;;;;;1.60;1.20;;;24.40;51.70;;;;;;4959171;28;20420;-70
2023/07/28 10:17:37;;;;;;;1.77;1.13;;;24.40;51.70;;;;;;4976351;28;20941;-69
2023/07/28 10:20:08;;;;;;;1.27;1.10;;;24.50;51.80;;;;;;4976236;28;20433;-71
2023/07/28 10:22:46;;;;;;;1.60;1.10;;;24.40;51.70;;;;;;4976323;28;20223;-70
2023/07/28 10:25:13;;;;;;;2.80;1.40;;;24.40;51.70;;;;;;4976240;28;20401;-71
2023/07/28 10:27:45;;;;;;;1.77;1.20;;;24.40;51.80;;;;;;4976196;28;20905;-70
2023/07/28 10:30:12;;;;;;;1.60;1.20;;;24.50;51.80;;;;;;4976046;28;20515;-70
2023/07/28 10:32:45;;;;;;;1.57;1.20;;;24.50;51.80;;;;;;4976206;28;20409;-69
2023/07/28 10:35:17;;;;;;;1.60;1.40;;;24.40;51.70;;;;;;4958705;28;20416;-70
2023/07/28 10:37:48;;;;;;;1.57;1.10;;;24.50;51.80;;;;;;4975912;28;20413;-69
2023/07/28 10:40:28;;;;;;;1.33;0.90;;;24.50;51.70;;;;;;4976150;28;20437;-70
2023/07/28 10:42:54;;;;;;;1.37;1.00;;;24.50;51.70;;;;;;4975950;28;20548;-71
2023/07/28 10:45:22;;;;;;;1.10;1.00;;;24.50;51.80;;;;;;4975506;28;20553;-69
2023/07/28 10:47:48;;;;;;;1.50;1.17;;;24.50;51.80;;;;;;4958533;28;20432;-70
2023/07/28 10:50:14;;;;;;;1.93;1.23;;;24.50;51.70;;;;;;4973271;28;20797;-70
2023/07/28 10:52:43;;;;;;;1.47;0.90;;;24.50;52.30;;;;;;4975808;28;20269;-70
2023/07/28 10:55:23;;;;;;;1.57;1.23;;;24.50;51.70;;;;;;4975706;28;20182;-69
2023/07/28 10:57:51;;;;;;;1.37;1.10;;;24.50;51.70;;;;;;4976000;28;20763;-70
2023/07/28 11:00:19;;;;;;;1.27;0.97;;;24.50;51.80;;;;;;4975664;28;20437;-70
2023/07/28 11:02:47;;;;;;;1.57;1.10;;;24.50;52.30;;;;;;4975464;28;20457;-70
2023/07/28 11:05:18;;;;;;;1.30;1.07;;;24.50;51.70;;;;;;4975843;28;20512;-69
2023/07/28 11:07:44;;;;;;;1.30;1.20;;;24.50;51.80;;;;;;4975366;28;20415;-70
2023/07/28 11:10:17;;;;;;;1.93;1.30;;;24.50;51.80;;;;;;4975479;28;20429;-69
2023/07/28 11:12:46;;;;;;;1.80;1.40;;;24.50;51.80;;;;;;4975421;28;20512;-70
2023/07/28 11:15:13;;;;;;;1.40;1.00;;;24.50;51.80;;;;;;4975624;28;20431;-70
2023/07/28 11:17:46;;;;;;;1.63;1.03;;;24.50;51.80;;;;;;4975431;28;20417;-70
2023/07/28 11:20:18;;;;;;;1.20;1.00;;;24.50;51.80;;;;;;4974993;28;20483;-70
2023/07/28 11:22:55;;;;;;;1.40;1.10;;;24.50;51.80;;;;;;4975247;28;20526;-70
2023/07/28 11:25:21;;;;;;;1.40;1.17;;;24.50;51.80;;;;;;4975199;28;20409;-69
2023/07/28 11:27:47;;;;;;;1.43;1.07;;;24.50;51.80;;;;;;4975174;28;20417;-70
2023/07/28 11:30:15;;;;;;;1.40;1.30;;;24.50;51.80;;;;;;4975167;28;20457;-69
2023/07/28 11:32:44;;;;;;;1.50;1.10;;;24.50;51.90;;;;;;4975427;28;20413;-68
2023/07/28 11:35:14;;;;;;;1.20;0.93;;;24.50;51.80;;;;;;4975029;28;20417;-70
2023/07/28 11:37:57;;;;;;;2.13;1.00;;;24.50;51.90;;;;;;4972016;28;20926;-70
2023/07/28 11:40:25;;;;;;;1.13;1.00;;;24.50;51.90;;;;;;4974849;28;20445;-69
2023/07/28 11:42:54;;;;;;;1.10;0.90;;;24.60;51.90;;;;;;4974779;28;20563;-70
2023/07/28 11:45:24;;;;;;;2.27;1.13;;;24.50;51.80;;;;;;4975047;28;20421;-71
2023/07/28 11:47:53;;;;;;;1.60;1.10;;;24.50;51.80;;;;;;4974884;28;20788;-70
2023/07/28 11:50:39;;;;;;;1.23;0.90;;;24.50;51.80;;;;;;4974843;28;20429;-71
2023/07/28 11:53:06;;;;;;;1.00;0.90;;;24.60;51.90;;;;;;4974672;28;20385;-69
2023/07/28 11:55:33;;;;;;;1.23;1.00;;;24.50;51.80;;;;;;4974638;28;20501;-70
2023/07/28 11:58:04;;;;;;;1.27;0.90;;;24.60;51.90;;;;;;4973262;28;20516;-70
2023/07/28 12:00:42;;;;;;;1.40;1.07;;;24.60;51.90;;;;;;4974067;28;20525;-71
2023/07/28 12:03:10;;;;;;;1.30;1.20;;;24.60;51.80;;;;;;4974448;28;20496;-67
2023/07/28 12:05:42;;;;;;;1.30;1.00;;;24.60;51.80;;;;;;4974525;28;20464;-70
2023/07/28 12:08:08;;;;;;;1.67;1.10;;;24.60;52.40;;;;;;4974700;28;20903;-70
2023/07/28 12:10:34;;;;;;;1.57;1.43;;;24.60;51.80;;;;;;4974280;28;20424;-71
2023/07/28 12:13:07;;;;;;;1.13;1.00;;;24.60;51.80;;;;;;4974326;28;20206;-71
2023/07/28 12:15:34;;;;;;;1.93;1.27;;;24.60;51.80;;;;;;4972897;28;20859;-71
2023/07/28 12:18:10;;;;;;;1.87;1.57;;;24.60;51.70;;;;;;4974496;28;20409;-70
2023/07/28 12:20:49;;;;;;;1.00;0.90;;;24.60;51.80;;;;;;4974278;28;20424;-71
2023/07/28 12:23:19;;;;;;;1.10;0.90;;;24.60;51.80;;;;;;4974132;28;20484;-70
2023/07/28 12:25:44;;;;;;;1.40;1.00;;;24.60;51.80;;;;;;4973992;28;20417;-71
2023/07/28 12:28:11;;;;;;;1.73;1.20;;;24.60;51.90;;;;;;4974131;28;20456;-70
2023/07/28 12:30:38;;;;;;;1.47;1.10;;;24.60;51.90;;;;;;4956322;28;20219;-70
2023/07/28 12:33:05;;;;;;;1.20;1.10;;;24.60;51.80;;;;;;4973828;28;20468;-71
2023/07/28 12:35:34;;;;;;;1.20;0.90;;;24.60;51.80;;;;;;4972599;28;20452;-70
2023/07/28 12:38:00;;;;;;;1.10;1.00;;;24.60;51.90;;;;;;4973820;28;20409;-71
2023/07/28 12:40:30;;;;;;;1.00;0.90;;;24.60;51.90;;;;;;4974123;28;20971;-69
2023/07/28 12:42:57;;;;;;;1.30;1.10;;;24.60;51.90;;;;;;4974070;28;20946;-69
2023/07/28 12:45:25;;;;;;;1.40;1.20;;;24.60;51.90;;;;;;4973799;28;20409;-70
2023/07/28 12:47:52;;;;;;;1.10;1.00;;;24.60;51.90;;;;;;4956457;28;20433;-72